createdAt,value
2017-11-01T00:00:07.544Z,1019.59
2017-11-01T00:01:06.420Z,1019.59
2017-11-01T00:02:06.429Z,1019.65
2017-11-01T00:03:06.361Z,1019.60
2017-11-01T00:04:06.442Z,1019.64
2017-11-01T00:05:06.310Z,1019.61
2017-11-01T00:06:06.352Z,1019.63
2017-11-01T00:07:06.256Z,1019.65
2017-11-01T00:08:06.262Z,1019.64
2017-11-01T00:09:06.202Z,1019.63
2017-11-01T00:10:06.275Z,1019.60
2017-11-01T00:11:06.149Z,1019.64
2017-11-01T00:12:06.185Z,1019.64
2017-11-01T00:13:06.091Z,1019.65
2017-11-01T00:14:06.105Z,1019.58
2017-11-01T00:15:06.038Z,1019.63
2017-11-01T00:16:06.110Z,1019.55
2017-11-01T00:17:05.984Z,1019.60
2017-11-01T00:18:06.019Z,1019.57
2017-11-01T00:19:05.930Z,1019.58
2017-11-01T00:20:05.925Z,1019.56
2017-11-01T00:21:05.873Z,1019.56
2017-11-01T00:22:05.941Z,1019.58
2017-11-01T00:23:05.820Z,1019.55
2017-11-01T00:24:05.851Z,1019.51
2017-11-01T00:25:05.766Z,1019.57
2017-11-01T00:26:05.757Z,1019.56
2017-11-01T00:27:05.712Z,1019.58
2017-11-01T00:28:05.774Z,1019.51
2017-11-01T00:29:05.654Z,1019.56
2017-11-01T00:30:05.684Z,1019.52
2017-11-01T00:31:05.603Z,1019.51
2017-11-01T00:32:05.601Z,1019.52
2017-11-01T00:33:05.544Z,1019.52
2017-11-01T00:34:05.604Z,1019.49
2017-11-01T00:35:05.492Z,1019.53
2017-11-01T00:36:05.520Z,1019.48
2017-11-01T00:37:05.439Z,1019.45
2017-11-01T00:38:05.429Z,1019.49
2017-11-01T00:39:05.389Z,1019.47
2017-11-01T00:40:05.439Z,1019.48
2017-11-01T00:41:05.326Z,1019.53
2017-11-01T00:42:05.354Z,1019.49
2017-11-01T00:43:05.275Z,1019.48
2017-11-01T00:44:05.365Z,1019.50
2017-11-01T00:45:05.218Z,1019.45
2017-11-01T00:46:05.270Z,1019.50
2017-11-01T00:47:05.167Z,1019.48
2017-11-01T00:48:05.183Z,1019.46
2017-11-01T00:49:05.115Z,1019.45
2017-11-01T00:50:05.195Z,1019.46
2017-11-01T00:51:05.069Z,1019.45
2017-11-01T00:52:05.098Z,1019.40
2017-11-01T00:53:05.006Z,1019.40
2017-11-01T00:54:05.019Z,1019.42
2017-11-01T00:55:04.950Z,1019.42
2017-11-01T00:56:05.028Z,1019.38
2017-11-01T00:57:04.895Z,1019.33
2017-11-01T00:58:04.937Z,1019.37
2017-11-01T00:59:04.839Z,1019.39
2017-11-01T01:00:04.849Z,1019.37
2017-11-01T01:01:04.788Z,1019.41
2017-11-01T01:02:04.860Z,1019.39
2017-11-01T01:03:04.734Z,1019.37
2017-11-01T01:04:04.771Z,1019.38
2017-11-01T01:05:04.676Z,1019.34
2017-11-01T01:06:04.680Z,1019.34
2017-11-01T01:07:04.625Z,1019.35
2017-11-01T01:08:04.695Z,1019.37
2017-11-01T01:09:04.570Z,1019.35
2017-11-01T01:10:04.603Z,1019.38
2017-11-01T01:11:04.517Z,1019.41
2017-11-01T01:12:04.518Z,1019.41
2017-11-01T01:13:04.461Z,1019.40
2017-11-01T01:14:04.524Z,1019.41
2017-11-01T01:15:04.407Z,1019.41
2017-11-01T01:16:04.435Z,1019.39
2017-11-01T01:17:04.349Z,1019.40
2017-11-01T01:18:04.343Z,1019.45
2017-11-01T01:19:04.301Z,1019.45
2017-11-01T01:20:04.352Z,1019.48
2017-11-01T01:21:04.244Z,1019.41
2017-11-01T01:22:04.266Z,1019.41
2017-11-01T01:23:04.190Z,1019.41
2017-11-01T01:24:04.284Z,1019.44
2017-11-01T01:25:04.145Z,1019.36
2017-11-01T01:26:04.186Z,1019.39
2017-11-01T01:27:04.082Z,1019.36
2017-11-01T01:28:04.098Z,1019.41
2017-11-01T01:29:04.026Z,1019.44
2017-11-01T01:30:04.112Z,1019.45
2017-11-01T01:31:03.978Z,1019.45
2017-11-01T01:32:04.020Z,1019.45
2017-11-01T01:33:03.918Z,1019.44
2017-11-01T01:34:03.931Z,1019.42
2017-11-01T01:35:03.867Z,1019.42
2017-11-01T01:36:03.941Z,1019.38
2017-11-01T01:37:03.811Z,1019.42
2017-11-01T01:38:03.851Z,1019.42
2017-11-01T01:39:03.758Z,1019.46
2017-11-01T01:40:03.769Z,1019.44
2017-11-01T01:41:03.708Z,1019.48
2017-11-01T01:42:03.776Z,1019.47
2017-11-01T01:43:03.649Z,1019.50
2017-11-01T01:44:03.682Z,1019.42
2017-11-01T01:45:03.600Z,1019.41
2017-11-01T01:46:03.596Z,1019.45
2017-11-01T01:47:03.546Z,1019.43
2017-11-01T01:48:03.609Z,1019.45
2017-11-01T01:49:03.488Z,1019.45
2017-11-01T01:50:03.521Z,1019.46
2017-11-01T01:51:03.431Z,1019.48
2017-11-01T01:52:03.431Z,1019.45
2017-11-01T01:53:03.378Z,1019.42
2017-11-01T01:54:03.442Z,1019.39
2017-11-01T01:55:03.328Z,1019.38
2017-11-01T01:56:03.351Z,1019.33
2017-11-01T01:57:03.271Z,1019.34
2017-11-01T01:58:03.259Z,1019.32
2017-11-01T01:59:03.216Z,1019.35
2017-11-01T02:00:03.280Z,1019.35
2017-11-01T02:01:03.173Z,1019.33
2017-11-01T02:02:03.182Z,1019.35
2017-11-01T02:03:03.113Z,1019.34
2017-11-01T02:04:03.196Z,1019.33
2017-11-01T02:05:03.054Z,1019.31
2017-11-01T02:06:03.104Z,1019.30
2017-11-01T02:07:03.009Z,1019.38
2017-11-01T02:08:03.014Z,1019.34
2017-11-01T02:09:02.946Z,1019.33
2017-11-01T02:10:03.031Z,1019.30
2017-11-01T02:11:02.892Z,1019.28
2017-11-01T02:12:02.939Z,1019.21
2017-11-01T02:13:02.863Z,1019.23
2017-11-01T02:14:03.875Z,1019.19
2017-11-01T02:15:02.783Z,1019.15
2017-11-01T02:16:02.864Z,1019.14
2017-11-01T02:17:02.732Z,1019.12
2017-11-01T02:18:02.768Z,1019.09
2017-11-01T02:19:02.678Z,1019.08
2017-11-01T02:20:02.704Z,1018.98
2017-11-01T02:21:02.622Z,1019.05
2017-11-01T02:22:02.691Z,1019.00
2017-11-01T02:23:02.569Z,1019.00
2017-11-01T02:24:02.604Z,1019.01
2017-11-01T02:25:02.516Z,1019.00
2017-11-01T02:26:02.511Z,1018.99
2017-11-01T02:27:02.462Z,1019.04
2017-11-01T02:28:02.525Z,1019.05
2017-11-01T02:29:02.406Z,1019.14
2017-11-01T02:30:02.436Z,1019.08
2017-11-01T02:31:02.351Z,1019.11
2017-11-01T02:32:02.353Z,1019.13
2017-11-01T02:33:02.301Z,1019.11
2017-11-01T02:34:02.358Z,1019.06
2017-11-01T02:35:02.249Z,1019.07
2017-11-01T02:36:02.272Z,1019.01
2017-11-01T02:37:02.189Z,1019.03
2017-11-01T02:38:02.179Z,1019.06
2017-11-01T02:39:02.136Z,1019.04
2017-11-01T02:40:02.189Z,1019.04
2017-11-01T02:41:02.086Z,1019.02
2017-11-01T02:42:02.103Z,1019.04
2017-11-01T02:43:02.029Z,1019.08
2017-11-01T02:44:02.110Z,1019.04
2017-11-01T02:45:01.997Z,1019.09
2017-11-01T02:46:02.023Z,1019.10
2017-11-01T02:47:01.930Z,1019.16
2017-11-01T02:48:01.935Z,1019.14
2017-11-01T02:49:01.868Z,1019.12
2017-11-01T02:50:01.946Z,1019.15
2017-11-01T02:51:01.813Z,1019.16
2017-11-01T02:52:01.861Z,1019.19
2017-11-01T02:53:01.760Z,1019.18
2017-11-01T02:54:01.781Z,1019.17
2017-11-01T02:55:01.707Z,1019.15
2017-11-01T02:56:01.781Z,1019.16
2017-11-01T02:57:01.654Z,1019.14
2017-11-01T02:58:01.696Z,1019.16
2017-11-01T02:59:01.603Z,1019.16
2017-11-01T03:00:01.608Z,1019.13
2017-11-01T03:01:01.542Z,1019.11
2017-11-01T03:02:01.625Z,1019.15
2017-11-01T03:03:01.492Z,1019.14
2017-11-01T03:04:01.522Z,1019.08
2017-11-01T03:05:01.439Z,1019.07
2017-11-01T03:06:01.431Z,1019.03
2017-11-01T03:07:01.385Z,1019.05
2017-11-01T03:08:01.449Z,1019.06
2017-11-01T03:09:01.330Z,1019.11
2017-11-01T03:10:01.356Z,1019.11
2017-11-01T03:11:01.277Z,1019.07
2017-11-01T03:12:01.368Z,1019.12
2017-11-01T03:13:01.221Z,1019.08
2017-11-01T03:14:01.276Z,1019.09
2017-11-01T03:15:01.173Z,1019.11
2017-11-01T03:16:01.187Z,1019.10
2017-11-01T03:17:01.115Z,1019.11
2017-11-01T03:18:01.200Z,1019.10
2017-11-01T03:19:01.067Z,1019.13
2017-11-01T03:20:01.110Z,1019.13
2017-11-01T03:21:01.007Z,1019.16
2017-11-01T03:22:01.019Z,1019.23
2017-11-01T03:23:00.965Z,1019.20
2017-11-01T03:24:01.032Z,1019.19
2017-11-01T03:25:00.908Z,1019.21
2017-11-01T03:26:00.940Z,1019.17
2017-11-01T03:27:00.848Z,1019.19
2017-11-01T03:28:00.853Z,1019.28
2017-11-01T03:29:00.801Z,1019.30
2017-11-01T03:30:00.865Z,1019.25
2017-11-01T03:31:00.738Z,1019.19
2017-11-01T03:32:00.775Z,1019.22
2017-11-01T03:33:00.685Z,1019.19
2017-11-01T03:34:00.685Z,1019.19
2017-11-01T03:35:00.638Z,1019.15
2017-11-01T03:36:00.696Z,1019.13
2017-11-01T03:37:00.576Z,1019.17
2017-11-01T03:38:00.610Z,1019.18
2017-11-01T03:39:00.524Z,1019.14
2017-11-01T03:40:00.517Z,1019.14
2017-11-01T03:41:00.477Z,1019.12
2017-11-01T03:42:00.527Z,1019.14
2017-11-01T03:43:00.423Z,1019.10
2017-11-01T03:44:00.437Z,1019.12
2017-11-01T03:45:00.362Z,1019.10
2017-11-01T03:46:00.347Z,1019.11
2017-11-01T03:47:00.310Z,1019.11
2017-11-01T03:48:00.365Z,1019.13
2017-11-01T03:49:00.261Z,1019.04
2017-11-01T03:50:00.271Z,1019.07
2017-11-01T03:51:00.200Z,1019.07
2017-11-01T03:52:00.285Z,1019.04
2017-11-01T03:53:00.146Z,1019.04
2017-11-01T03:54:00.197Z,1019.01
2017-11-01T03:55:00.102Z,1019.02
2017-11-01T03:56:00.110Z,1019.04
2017-11-01T03:57:00.043Z,1019.01
2017-11-01T03:58:00.122Z,1019.02
2017-11-01T03:58:59.983Z,1019.07
2017-11-01T04:00:00.033Z,1019.04
2017-11-01T04:00:59.930Z,1019.05
2017-11-01T04:01:59.942Z,1019.06
2017-11-01T04:02:59.879Z,1019.05
2017-11-01T04:03:59.955Z,1019.05
2017-11-01T04:04:59.823Z,1019.06
2017-11-01T04:05:59.861Z,1019.08
2017-11-01T04:06:59.771Z,1019.04
2017-11-01T04:07:59.772Z,1019.06
2017-11-01T04:08:59.717Z,1019.03
2017-11-01T04:09:59.788Z,1019.04
2017-11-01T04:10:59.667Z,1019.03
2017-11-01T04:11:59.697Z,1019.04
2017-11-01T04:12:59.617Z,1019.06
2017-11-01T04:13:59.603Z,1019.03
2017-11-01T04:14:59.565Z,1019.09
2017-11-01T04:15:59.612Z,1019.08
2017-11-01T04:16:59.503Z,1019.09
2017-11-01T04:17:59.528Z,1019.06
2017-11-01T04:18:59.448Z,1019.01
2017-11-01T04:19:59.537Z,1019.03
2017-11-01T04:20:59.395Z,1018.98
2017-11-01T04:21:59.447Z,1018.93
2017-11-01T04:22:59.341Z,1018.93
2017-11-01T04:23:59.357Z,1018.93
2017-11-01T04:24:59.288Z,1018.92
2017-11-01T04:25:59.365Z,1018.92
2017-11-01T04:26:59.237Z,1018.94
2017-11-01T04:27:59.278Z,1018.90
2017-11-01T04:28:59.192Z,1018.95
2017-11-01T04:29:59.188Z,1018.89
2017-11-01T04:30:59.125Z,1018.88
2017-11-01T04:31:59.199Z,1018.90
2017-11-01T04:32:59.075Z,1018.96
2017-11-01T04:33:59.111Z,1018.94
2017-11-01T04:34:59.021Z,1018.93
2017-11-01T04:35:59.018Z,1018.93
2017-11-01T04:36:58.966Z,1018.91
2017-11-01T04:37:59.032Z,1018.89
2017-11-01T04:38:58.918Z,1018.93
2017-11-01T04:39:58.943Z,1018.88
2017-11-01T04:40:58.864Z,1018.86
2017-11-01T04:41:58.854Z,1018.91
2017-11-01T04:42:58.811Z,1018.89
2017-11-01T04:43:58.867Z,1018.85
2017-11-01T04:44:58.754Z,1018.91
2017-11-01T04:45:58.792Z,1018.88
2017-11-01T04:46:58.695Z,1018.92
2017-11-01T04:47:58.689Z,1018.89
2017-11-01T04:48:58.654Z,1018.87
2017-11-01T04:49:58.697Z,1018.87
2017-11-01T04:50:58.595Z,1018.89
2017-11-01T04:51:58.613Z,1018.88
2017-11-01T04:52:58.539Z,1018.83
2017-11-01T04:53:58.621Z,1018.79
2017-11-01T04:54:58.484Z,1018.89
2017-11-01T04:55:58.538Z,1018.82
2017-11-01T04:56:58.431Z,1018.82
2017-11-01T04:57:58.440Z,1018.86
2017-11-01T04:58:58.380Z,1018.88
2017-11-01T04:59:58.451Z,1018.88
2017-11-01T05:00:58.322Z,1018.91
2017-11-01T05:01:58.371Z,1018.89
2017-11-01T05:02:58.273Z,1018.88
2017-11-01T05:03:58.275Z,1018.84
2017-11-01T05:04:58.214Z,1018.87
2017-11-01T05:05:58.285Z,1018.88
2017-11-01T05:06:58.169Z,1018.87
2017-11-01T05:07:58.202Z,1018.89
2017-11-01T05:08:58.108Z,1018.86
2017-11-01T05:09:58.110Z,1018.89
2017-11-01T05:10:58.054Z,1018.93
2017-11-01T05:11:58.121Z,1018.93
2017-11-01T05:12:57.998Z,1018.92
2017-11-01T05:13:58.034Z,1018.93
2017-11-01T05:14:57.946Z,1018.96
2017-11-01T05:15:57.942Z,1018.94
2017-11-01T05:16:57.897Z,1018.95
2017-11-01T05:17:57.956Z,1018.99
2017-11-01T05:18:57.840Z,1018.91
2017-11-01T05:19:57.865Z,1018.94
2017-11-01T05:20:57.784Z,1018.93
2017-11-01T05:21:57.774Z,1018.89
2017-11-01T05:22:57.732Z,1018.85
2017-11-01T05:23:57.793Z,1018.83
2017-11-01T05:24:57.674Z,1018.81
2017-11-01T05:25:57.702Z,1018.80
2017-11-01T05:26:57.624Z,1018.79
2017-11-01T05:27:57.715Z,1018.83
2017-11-01T05:28:57.570Z,1018.80
2017-11-01T05:29:57.626Z,1018.76
2017-11-01T05:30:57.515Z,1018.76
2017-11-01T05:31:57.524Z,1018.76
2017-11-01T05:32:57.462Z,1018.82
2017-11-01T05:33:57.540Z,1018.79
2017-11-01T05:34:57.427Z,1018.77
2017-11-01T05:35:57.450Z,1018.81
2017-11-01T05:36:57.354Z,1018.82
2017-11-01T05:37:57.356Z,1018.76
2017-11-01T05:38:57.300Z,1018.78
2017-11-01T05:39:57.369Z,1018.77
2017-11-01T05:40:57.256Z,1018.74
2017-11-01T05:41:57.283Z,1018.83
2017-11-01T05:42:57.196Z,1018.85
2017-11-01T05:43:57.192Z,1018.81
2017-11-01T05:44:57.136Z,1018.84
2017-11-01T05:45:57.205Z,1018.89
2017-11-01T05:46:57.087Z,1018.80
2017-11-01T05:47:57.114Z,1018.86
2017-11-01T05:48:57.031Z,1018.78
2017-11-01T05:49:57.026Z,1018.80
2017-11-01T05:50:56.980Z,1018.76
2017-11-01T05:51:57.037Z,1018.84
2017-11-01T05:52:56.924Z,1018.81
2017-11-01T05:53:56.948Z,1018.82
2017-11-01T05:54:56.874Z,1018.84
2017-11-01T05:55:56.857Z,1018.82
2017-11-01T05:56:56.812Z,1018.84
2017-11-01T05:57:56.867Z,1018.89
2017-11-01T05:58:56.760Z,1018.91
2017-11-01T05:59:56.781Z,1018.90
2017-11-01T06:00:56.718Z,1018.92
2017-11-01T06:01:56.791Z,1018.93
2017-11-01T06:02:56.658Z,1018.91
2017-11-01T06:03:56.701Z,1018.95
2017-11-01T06:04:56.598Z,1018.88
2017-11-01T06:05:56.610Z,1018.92
2017-11-01T06:06:56.551Z,1018.90
2017-11-01T06:07:56.634Z,1018.95
2017-11-01T06:08:56.491Z,1018.95
2017-11-01T06:09:56.535Z,1018.95
2017-11-01T06:10:56.440Z,1018.91
2017-11-01T06:11:56.459Z,1018.97
2017-11-01T06:12:56.391Z,1018.97
2017-11-01T06:13:56.459Z,1018.96
2017-11-01T06:14:56.336Z,1018.99
2017-11-01T06:15:56.368Z,1019.01
2017-11-01T06:16:56.277Z,1019.01
2017-11-01T06:17:56.285Z,1019.05
2017-11-01T06:18:56.223Z,1019.03
2017-11-01T06:19:56.293Z,1019.07
2017-11-01T06:20:56.179Z,1019.06
2017-11-01T06:21:56.204Z,1019.02
2017-11-01T06:22:56.126Z,1019.07
2017-11-01T06:23:57.137Z,1019.06
2017-11-01T06:24:56.061Z,1019.06
2017-11-01T06:25:56.121Z,1019.07
2017-11-01T06:26:56.009Z,1019.11
2017-11-01T06:27:56.033Z,1019.09
2017-11-01T06:28:55.961Z,1019.08
2017-11-01T06:29:55.943Z,1019.11
2017-11-01T06:30:55.899Z,1019.08
2017-11-01T06:31:55.956Z,1019.08
2017-11-01T06:32:55.845Z,1019.06
2017-11-01T06:33:55.865Z,1019.11
2017-11-01T06:34:55.794Z,1019.10
2017-11-01T06:35:55.878Z,1019.09
2017-11-01T06:36:55.740Z,1019.09
2017-11-01T06:37:55.787Z,1019.09
2017-11-01T06:38:55.690Z,1019.16
2017-11-01T06:39:55.697Z,1019.14
2017-11-01T06:40:55.631Z,1019.11
2017-11-01T06:41:55.711Z,1019.14
2017-11-01T06:42:55.579Z,1019.18
2017-11-01T06:43:55.623Z,1019.20
2017-11-01T06:44:55.525Z,1019.20
2017-11-01T06:45:55.531Z,1019.22
2017-11-01T06:46:55.468Z,1019.20
2017-11-01T06:47:55.544Z,1019.22
2017-11-01T06:48:55.416Z,1019.22
2017-11-01T06:49:55.453Z,1019.24
2017-11-01T06:50:55.363Z,1019.23
2017-11-01T06:51:55.378Z,1019.24
2017-11-01T06:52:55.308Z,1019.24
2017-11-01T06:53:55.373Z,1019.22
2017-11-01T06:54:55.257Z,1019.25
2017-11-01T06:55:55.288Z,1019.27
2017-11-01T06:56:55.203Z,1019.26
2017-11-01T06:57:55.198Z,1019.25
2017-11-01T06:58:55.149Z,1019.24
2017-11-01T06:59:55.232Z,1019.32
2017-11-01T07:00:55.091Z,1019.26
2017-11-01T07:01:55.122Z,1019.32
2017-11-01T07:02:55.044Z,1019.34
2017-11-01T07:03:55.030Z,1019.34
2017-11-01T07:04:54.987Z,1019.31
2017-11-01T07:05:55.043Z,1019.40
2017-11-01T07:06:54.930Z,1019.34
2017-11-01T07:07:54.955Z,1019.39
2017-11-01T07:08:54.885Z,1019.40
2017-11-01T07:09:54.969Z,1019.42
2017-11-01T07:10:54.826Z,1019.34
2017-11-01T07:11:54.880Z,1019.39
2017-11-01T07:12:54.774Z,1019.40
2017-11-01T07:13:54.789Z,1019.45
2017-11-01T07:14:54.717Z,1019.42
2017-11-01T07:15:54.800Z,1019.42
2017-11-01T07:16:54.661Z,1019.46
2017-11-01T07:17:54.707Z,1019.42
2017-11-01T07:18:54.621Z,1019.43
2017-11-01T07:19:54.616Z,1019.41
2017-11-01T07:20:54.555Z,1019.48
2017-11-01T07:21:54.625Z,1019.48
2017-11-01T07:22:54.507Z,1019.46
2017-11-01T07:23:54.536Z,1019.45
2017-11-01T07:24:54.456Z,1019.48
2017-11-01T07:25:54.457Z,1019.48
2017-11-01T07:26:54.393Z,1019.47
2017-11-01T07:27:54.459Z,1019.51
2017-11-01T07:28:54.347Z,1019.58
2017-11-01T07:29:54.370Z,1019.68
2017-11-01T07:30:54.293Z,1019.55
2017-11-01T07:31:54.310Z,1019.53
2017-11-01T07:32:54.238Z,1019.51
2017-11-01T07:33:54.319Z,1019.52
2017-11-01T07:34:54.178Z,1019.57
2017-11-01T07:35:54.203Z,1019.51
2017-11-01T07:36:54.127Z,1019.49
2017-11-01T07:37:54.216Z,1019.54
2017-11-01T07:38:54.078Z,1019.54
2017-11-01T07:39:54.129Z,1019.60
2017-11-01T07:40:54.020Z,1019.64
2017-11-01T07:41:54.038Z,1019.63
2017-11-01T07:42:53.966Z,1019.66
2017-11-01T07:43:54.050Z,1019.72
2017-11-01T07:44:53.914Z,1019.75
2017-11-01T07:45:53.962Z,1019.73
2017-11-01T07:46:53.861Z,1019.74
2017-11-01T07:47:53.872Z,1019.80
2017-11-01T07:48:53.804Z,1019.78
2017-11-01T07:49:53.880Z,1019.84
2017-11-01T07:50:53.753Z,1019.80
2017-11-01T07:51:53.787Z,1019.81
2017-11-01T07:52:53.699Z,1019.81
2017-11-01T07:53:53.700Z,1019.81
2017-11-01T07:54:53.648Z,1019.86
2017-11-01T07:55:53.710Z,1019.86
2017-11-01T07:56:53.593Z,1019.83
2017-11-01T07:57:53.620Z,1019.79
2017-11-01T07:58:53.542Z,1019.81
2017-11-01T07:59:53.535Z,1019.72
2017-11-01T08:00:53.488Z,1019.76
2017-11-01T08:01:53.544Z,1019.80
2017-11-01T08:02:53.433Z,1019.76
2017-11-01T08:03:53.452Z,1019.78
2017-11-01T08:04:53.376Z,1019.76
2017-11-01T08:05:53.364Z,1019.78
2017-11-01T08:06:53.326Z,1019.77
2017-11-01T08:07:53.377Z,1019.80
2017-11-01T08:08:53.268Z,1019.80
2017-11-01T08:09:53.301Z,1019.82
2017-11-01T08:10:53.215Z,1019.82
2017-11-01T08:11:53.301Z,1019.82
2017-11-01T08:12:53.165Z,1019.84
2017-11-01T08:13:53.209Z,1019.83
2017-11-01T08:14:53.114Z,1019.83
2017-11-01T08:15:53.125Z,1019.86
2017-11-01T08:16:53.058Z,1019.90
2017-11-01T08:17:53.141Z,1019.88
2017-11-01T08:18:53.004Z,1019.90
2017-11-01T08:19:53.048Z,1019.89
2017-11-01T08:20:52.960Z,1019.79
2017-11-01T08:21:52.958Z,1019.79
2017-11-01T08:22:52.900Z,1019.83
2017-11-01T08:23:52.966Z,1019.88
2017-11-01T08:24:52.847Z,1019.87
2017-11-01T08:25:52.871Z,1019.86
2017-11-01T08:26:52.789Z,1019.86
2017-11-01T08:27:52.784Z,1019.81
2017-11-01T08:28:52.741Z,1019.83
2017-11-01T08:29:52.797Z,1019.87
2017-11-01T08:30:52.705Z,1019.89
2017-11-01T08:31:52.722Z,1019.87
2017-11-01T08:32:52.646Z,1019.84
2017-11-01T08:33:52.619Z,1019.88
2017-11-01T08:34:52.583Z,1019.87
2017-11-01T08:35:52.633Z,1019.86
2017-11-01T08:36:52.528Z,1019.87
2017-11-01T08:37:52.539Z,1019.83
2017-11-01T08:38:52.475Z,1019.89
2017-11-01T08:39:52.557Z,1019.85
2017-11-01T08:40:52.425Z,1019.80
2017-11-01T08:41:52.460Z,1019.83
2017-11-01T08:42:52.367Z,1019.77
2017-11-01T08:43:52.374Z,1019.79
2017-11-01T08:44:52.314Z,1019.79
2017-11-01T08:45:52.422Z,1019.79
2017-11-01T08:46:52.266Z,1019.81
2017-11-01T08:47:52.296Z,1019.77
2017-11-01T08:48:52.208Z,1019.86
2017-11-01T08:49:52.206Z,1019.84
2017-11-01T08:50:52.155Z,1019.84
2017-11-01T08:51:52.215Z,1019.84
2017-11-01T08:52:52.107Z,1019.84
2017-11-01T08:53:52.130Z,1019.83
2017-11-01T08:54:52.049Z,1019.85
2017-11-01T08:55:52.039Z,1019.83
2017-11-01T08:56:51.995Z,1019.81
2017-11-01T08:57:52.057Z,1019.87
2017-11-01T08:58:51.947Z,1019.81
2017-11-01T08:59:51.965Z,1019.82
2017-11-01T09:00:51.896Z,1019.85
2017-11-01T09:01:51.974Z,1019.84
2017-11-01T09:02:51.843Z,1019.87
2017-11-01T09:03:51.888Z,1019.84
2017-11-01T09:04:51.791Z,1019.80
2017-11-01T09:05:51.795Z,1019.75
2017-11-01T09:06:51.735Z,1019.80
2017-11-01T09:07:51.807Z,1019.74
2017-11-01T09:08:51.684Z,1019.80
2017-11-01T09:09:51.718Z,1019.76
2017-11-01T09:10:51.631Z,1019.74
2017-11-01T09:11:51.627Z,1019.71
2017-11-01T09:12:51.576Z,1019.69
2017-11-01T09:13:52.561Z,1019.73
2017-11-01T09:14:51.533Z,1019.73
2017-11-01T09:15:51.548Z,1019.74
2017-11-01T09:16:51.479Z,1019.70
2017-11-01T09:17:51.561Z,1019.71
2017-11-01T09:18:51.447Z,1019.70
2017-11-01T09:19:51.496Z,1019.70
2017-11-01T09:20:51.383Z,1019.66
2017-11-01T09:21:51.401Z,1019.60
2017-11-01T09:22:51.318Z,1019.61
2017-11-01T09:23:51.395Z,1019.60
2017-11-01T09:24:51.265Z,1019.54
2017-11-01T09:25:51.305Z,1019.64
2017-11-01T09:26:51.211Z,1019.64
2017-11-01T09:27:51.215Z,1019.69
2017-11-01T09:28:51.160Z,1019.65
2017-11-01T09:29:51.227Z,1019.60
2017-11-01T09:30:51.111Z,1019.67
2017-11-01T09:31:51.136Z,1019.64
2017-11-01T09:32:51.057Z,1019.71
2017-11-01T09:33:51.047Z,1019.71
2017-11-01T09:34:51.007Z,1019.74
2017-11-01T09:35:51.075Z,1019.66
2017-11-01T09:36:50.953Z,1019.75
2017-11-01T09:37:50.969Z,1019.73
2017-11-01T09:38:50.900Z,1019.72
2017-11-01T09:39:50.982Z,1019.81
2017-11-01T09:40:50.844Z,1019.76
2017-11-01T09:41:50.890Z,1019.75
2017-11-01T09:42:50.801Z,1019.69
2017-11-01T09:43:50.798Z,1019.69
2017-11-01T09:44:50.745Z,1019.61
2017-11-01T09:45:50.818Z,1019.65
2017-11-01T09:46:50.691Z,1019.64
2017-11-01T09:47:50.727Z,1019.62
2017-11-01T09:48:50.642Z,1019.64
2017-11-01T09:49:50.641Z,1019.58
2017-11-01T09:50:50.596Z,1019.66
2017-11-01T09:51:50.648Z,1019.69
2017-11-01T09:52:50.545Z,1019.73
2017-11-01T09:53:50.554Z,1019.82
2017-11-01T09:54:50.489Z,1019.99
2017-11-01T09:55:50.574Z,1019.83
2017-11-01T09:56:50.434Z,1019.81
2017-11-01T09:57:50.483Z,1019.73
2017-11-01T09:58:50.387Z,1019.69
2017-11-01T09:59:50.392Z,1019.70
2017-11-01T10:00:50.337Z,1019.71
2017-11-01T10:01:50.407Z,1019.70
2017-11-01T10:02:50.287Z,1019.68
2017-11-01T10:03:50.315Z,1020.08
2017-11-01T10:04:50.241Z,1019.69
2017-11-01T10:05:50.329Z,1020.17
2017-11-01T10:06:50.195Z,1019.87
2017-11-01T10:07:50.240Z,1019.80
2017-11-01T10:08:50.144Z,1019.70
2017-11-01T10:09:50.153Z,1019.70
2017-11-01T10:10:50.096Z,1019.69
2017-11-01T10:11:50.171Z,1019.68
2017-11-01T10:12:50.046Z,1019.80
2017-11-01T10:13:50.068Z,1019.79
2017-11-01T10:14:50.002Z,1019.79
2017-11-01T10:15:50.076Z,1019.83
2017-11-01T10:16:49.965Z,1019.78
2017-11-01T10:17:49.987Z,1019.63
2017-11-01T10:18:49.909Z,1019.62
2017-11-01T10:19:49.896Z,1019.57
2017-11-01T10:20:49.862Z,1019.62
2017-11-01T10:21:49.909Z,1019.63
2017-11-01T10:22:49.807Z,1019.62
2017-11-01T10:23:49.819Z,1019.69
2017-11-01T10:24:49.767Z,1019.63
2017-11-01T10:25:49.829Z,1019.64
2017-11-01T10:26:49.719Z,1019.65
2017-11-01T10:27:49.745Z,1019.68
2017-11-01T10:28:49.670Z,1019.74
2017-11-01T10:29:49.755Z,1019.83
2017-11-01T10:30:49.620Z,1019.94
2017-11-01T10:31:49.666Z,1020.56
2017-11-01T10:32:49.574Z,1020.47
2017-11-01T10:33:49.576Z,1020.53
2017-11-01T10:34:49.527Z,1020.59
2017-11-01T10:35:49.587Z,1020.56
2017-11-01T10:36:49.483Z,1020.56
2017-11-01T10:37:49.499Z,1020.50
2017-11-01T10:38:49.444Z,1020.49
2017-11-01T10:39:49.508Z,1020.54
2017-11-01T10:40:49.395Z,1020.48
2017-11-01T10:41:49.420Z,1020.57
2017-11-01T10:42:49.351Z,1020.60
2017-11-01T10:43:49.328Z,1020.60
2017-11-01T10:44:49.309Z,1020.69
2017-11-01T10:45:49.344Z,1020.50
2017-11-01T10:46:49.272Z,1019.96
2017-11-01T10:47:49.354Z,1020.60
2017-11-01T10:48:49.228Z,1020.60
2017-11-01T10:49:49.223Z,1020.54
2017-11-01T10:50:49.272Z,1020.53
2017-11-01T10:51:49.175Z,1020.51
2017-11-01T10:52:49.188Z,1020.53
2017-11-01T10:53:49.141Z,1020.53
2017-11-01T10:54:49.196Z,1020.52
2017-11-01T10:55:49.113Z,1020.56
2017-11-01T10:56:49.110Z,1020.58
2017-11-01T10:57:49.076Z,1020.54
2017-11-01T10:58:49.122Z,1020.58
2017-11-01T10:59:49.041Z,1020.59
2017-11-01T11:00:49.130Z,1020.22
2017-11-01T11:01:49.015Z,1020.50
2017-11-01T11:02:49.043Z,1020.19
2017-11-01T11:03:48.989Z,1020.49
2017-11-01T11:04:49.051Z,1020.56
2017-11-01T11:05:48.956Z,1020.56
2017-11-01T11:06:48.966Z,1020.24
2017-11-01T11:07:48.930Z,1020.37
2017-11-01T11:08:48.975Z,1020.47
2017-11-01T11:09:48.902Z,1020.39
2017-11-01T11:10:48.999Z,1020.45
2017-11-01T11:11:48.875Z,1020.41
2017-11-01T11:12:48.902Z,1020.41
2017-11-01T11:13:48.849Z,1020.46
2017-11-01T11:14:48.916Z,1020.37
2017-11-01T11:15:48.828Z,1020.31
2017-11-01T11:16:48.932Z,1020.33
2017-11-01T11:17:48.798Z,1020.32
2017-11-01T11:18:48.835Z,1020.34
2017-11-01T11:19:48.776Z,1020.36
2017-11-01T11:20:48.850Z,1020.33
2017-11-01T11:21:48.754Z,1020.33
2017-11-01T11:22:48.759Z,1020.32
2017-11-01T11:23:48.741Z,1020.33
2017-11-01T11:24:48.773Z,1020.28
2017-11-01T11:25:48.696Z,1020.37
2017-11-01T11:26:48.779Z,1020.29
2017-11-01T11:27:48.676Z,1020.17
2017-11-01T11:28:48.714Z,1020.17
2017-11-01T11:29:48.655Z,1020.26
2017-11-01T11:30:48.832Z,1020.25
2017-11-01T11:31:48.657Z,1020.19
2017-11-01T11:32:48.730Z,1020.28
2017-11-01T11:33:48.605Z,1020.36
2017-11-01T11:34:48.642Z,1020.31
2017-11-01T11:35:48.585Z,1020.31
2017-11-01T11:36:48.668Z,1020.32
2017-11-01T11:37:48.610Z,1020.23
2017-11-01T11:38:48.565Z,1020.23
2017-11-01T11:39:48.534Z,1020.23
2017-11-01T11:40:48.578Z,1020.25
2017-11-01T11:41:48.509Z,1020.21
2017-11-01T11:42:48.600Z,1020.24
2017-11-01T11:43:48.504Z,1020.33
2017-11-01T11:44:48.509Z,1020.33
2017-11-01T11:45:48.465Z,1020.42
2017-11-01T11:46:48.518Z,1020.47
2017-11-01T11:47:48.440Z,1020.56
2017-11-01T11:48:48.540Z,1020.53
2017-11-01T11:49:48.424Z,1020.51
2017-11-01T11:50:48.447Z,1020.56
2017-11-01T11:51:48.399Z,1020.59
2017-11-01T11:52:48.470Z,1020.68
2017-11-01T11:53:48.380Z,1020.71
2017-11-01T11:54:48.476Z,1020.88
2017-11-01T11:55:48.358Z,1020.94
2017-11-01T11:56:48.417Z,1020.96
2017-11-01T11:57:48.331Z,1021.05
2017-11-01T11:58:48.410Z,1020.95
2017-11-01T11:59:48.318Z,1020.83
2017-11-01T12:00:48.420Z,1020.87
2017-11-01T12:01:48.295Z,1020.77
2017-11-01T12:02:48.344Z,1020.76
2017-11-01T12:03:48.268Z,1020.65
2017-11-01T12:04:48.346Z,1020.57